Time;durP1;ratioP1;P1;durP2;ratioP2;P2;SDS_P1;SDS_P2;PMS_P1;PMS_P2;Temp;Humidity;BMP_temperature;BMP_pressure;BME280_temperature;BME280_humidity;BME280_pressure;Samples;Min_cycle;Max_cycle;Signal;HPM_P1;HPM_P2
2021/10/16 00:03:16;;;;;;;16.88;4.38;;;;;;;5.17;100.00;102157.38;10566064;28;20457;-60
2021/10/16 00:08:19;;;;;;;15.15;3.63;;;;;;;5.14;100.00;102160.88;10584127;28;20058;-60
2021/10/16 00:13:21;;;;;;;7.40;3.17;;;;;;;5.07;100.00;102161.84;10583984;28;20050;-60
2021/10/16 00:18:24;;;;;;;10.35;3.42;;;;;;;5.05;100.00;102166.19;10583986;28;20402;-60
2021/10/16 00:23:26;;;;;;;11.88;3.13;;;;;;;5.13;100.00;102168.72;10583301;28;20526;-60
2021/10/16 00:28:29;;;;;;;10.15;2.97;;;;;;;4.95;100.00;102169.78;10583553;28;20044;-59
2021/10/16 00:33:31;;;;;;;10.35;3.28;;;;;;;4.90;100.00;102166.38;10583042;28;20054;-59
2021/10/16 00:38:33;;;;;;;9.27;2.55;;;;;;;4.96;100.00;102171.47;10583499;28;20055;-59
2021/10/16 00:43:36;;;;;;;16.83;3.42;;;;;;;4.96;100.00;102166.28;10582999;28;20126;-60
2021/10/16 00:48:38;;;;;;;7.68;2.00;;;;;;;5.16;100.00;102153.06;10582716;28;20055;-60
2021/10/16 00:53:40;;;;;;;12.45;3.50;;;;;;;4.90;100.00;102153.41;10582665;28;20050;-59
2021/10/16 00:58:43;;;;;;;13.35;2.55;;;;;;;5.02;100.00;102150.66;10583729;28;20052;-60
2021/10/16 01:03:45;;;;;;;16.52;3.58;;;;;;;4.98;100.00;102154.19;10563539;28;20411;-60
2021/10/16 01:08:48;;;;;;;14.50;2.85;;;;;;;4.97;100.00;102149.84;10581780;28;20040;-60
2021/10/16 01:13:52;;;;;;;15.98;2.95;;;;;;;4.94;100.00;102149.88;10582146;28;20039;-60
2021/10/16 01:18:54;;;;;;;11.95;3.33;;;;;;;4.76;100.00;102156.16;10581713;28;20052;-60
2021/10/16 01:23:58;;;;;;;9.63;3.60;;;;;;;5.20;100.00;102157.34;10582022;28;20062;-60
2021/10/16 01:29:00;;;;;;;9.70;3.08;;;;;;;4.92;100.00;102141.25;10563358;28;20044;-60
2021/10/16 01:34:02;;;;;;;11.10;3.50;;;;;;;4.75;100.00;102144.06;10581630;28;20047;-60
2021/10/16 01:39:05;;;;;;;9.45;3.88;;;;;;;4.69;100.00;102139.81;10581464;28;20384;-60
2021/10/16 01:44:08;;;;;;;12.35;4.43;;;;;;;4.63;100.00;102147.66;10581544;28;20051;-60
2021/10/16 01:49:13;;;;;;;12.40;4.13;;;;;;;4.57;100.00;102134.75;10581023;28;20047;-60
2021/10/16 01:54:15;;;;;;;12.85;4.78;;;;;;;4.65;100.00;102136.38;10581467;28;20106;-59
2021/10/16 01:59:20;;;;;;;14.95;5.07;;;;;;;4.61;100.00;102144.22;10581234;28;20059;-60
2021/10/16 02:04:39;;;;;;;12.88;3.72;;;;;;;4.57;100.00;102147.72;10580818;28;20403;-59
2021/10/16 02:09:41;;;;;;;8.95;3.13;;;;;;;4.67;100.00;102140.69;10562557;28;20411;-60
2021/10/16 02:14:44;;;;;;;13.13;3.90;;;;;;;4.60;100.00;102139.91;10580695;28;20476;-60
2021/10/16 02:19:46;;;;;;;17.60;3.60;;;;;;;4.54;100.00;102147.75;10588069;28;20054;-59
2021/10/16 02:24:48;;;;;;;12.18;4.25;;;;;;;4.50;100.00;102148.66;10588477;28;20050;-59
2021/10/16 02:29:51;;;;;;;16.92;3.95;;;;;;;4.64;100.00;102145.03;10587810;28;20380;-59
2021/10/16 02:34:53;;;;;;;10.73;3.53;;;;;;;5.01;100.00;102148.97;10587642;28;20051;-59
2021/10/16 02:39:55;;;;;;;9.00;3.85;;;;;;;5.13;100.00;102141.00;10587901;28;20050;-59
2021/10/16 02:44:57;;;;;;;20.05;6.88;;;;;;;5.49;100.00;102138.75;10587512;28;20047;-59
2021/10/16 02:50:00;;;;;;;18.65;5.15;;;;;;;5.56;100.00;102137.81;10587139;28;20051;-59
2021/10/16 02:55:02;;;;;;;23.15;6.93;;;;;;;5.67;100.00;102136.78;10587466;28;20039;-59
2021/10/16 03:00:05;;;;;;;12.02;4.85;;;;;;;5.34;100.00;102152.81;10586710;28;20051;-61
2021/10/16 03:05:08;;;;;;;11.23;4.45;;;;;;;5.59;100.00;102161.13;10587281;28;20051;-59
2021/10/16 03:10:10;;;;;;;14.20;3.88;;;;;;;5.24;100.00;102155.56;10586224;28;20482;-59
2021/10/16 03:15:12;;;;;;;13.15;5.47;;;;;;;5.27;100.00;102156.38;10586714;28;20380;-59
2021/10/16 03:20:15;;;;;;;9.93;4.55;;;;;;;5.35;100.00;102158.91;10567868;28;20411;-59
2021/10/16 03:25:17;;;;;;;11.52;4.25;;;;;;;5.71;100.00;102146.22;10586039;28;20058;-59
2021/10/16 03:30:19;;;;;;;15.18;5.82;;;;;;;5.56;100.00;102142.13;10585046;28;20044;-60
2021/10/16 03:35:22;;;;;;;9.05;4.55;;;;;;;5.81;100.00;102144.34;10585506;28;20134;-60
2021/10/16 03:40:24;;;;;;;22.20;6.57;;;;;;;5.53;100.00;102136.97;10567068;28;20495;-60
2021/10/16 03:45:27;;;;;;;22.73;5.88;;;;;;;5.90;100.00;102147.66;10585329;28;20054;-60
2021/10/16 03:50:29;;;;;;;19.65;5.38;;;;;;;5.92;100.00;102145.91;10585201;28;20043;-60
2021/10/16 03:55:31;;;;;;;19.60;6.78;;;;;;;5.97;100.00;102137.19;10584958;28;20050;-60
2021/10/16 04:00:34;;;;;;;17.90;5.25;;;;;;;6.14;100.00;102140.38;10584488;28;20047;-60
2021/10/16 04:05:36;;;;;;;17.02;5.63;;;;;;;6.30;100.00;102147.03;10585424;28;20043;-60
2021/10/16 04:10:39;;;;;;;12.07;5.75;;;;;;;6.17;100.00;102152.44;10565723;28;20043;-59
2021/10/16 04:15:41;;;;;;;15.68;6.28;;;;;;;6.08;100.00;102137.88;10584517;28;20039;-60
2021/10/16 04:20:44;;;;;;;19.20;5.90;;;;;;;6.33;100.00;102136.53;10565750;28;20043;-59
2021/10/16 04:25:46;;;;;;;19.30;6.18;;;;;;;6.24;100.00;102141.06;10583598;28;20044;-60
2021/10/16 04:30:49;;;;;;;19.30;7.47;;;;;;;6.07;100.00;102136.13;10583307;28;20047;-60
2021/10/16 04:35:51;;;;;;;16.17;5.68;;;;;;;6.06;100.00;102131.84;10583201;28;20078;-60
2021/10/16 04:40:53;;;;;;;17.15;7.15;;;;;;;6.39;100.00;102137.31;10582933;28;20105;-60
2021/10/16 04:45:56;;;;;;;14.93;5.97;;;;;;;6.43;100.00;102145.03;10564755;28;20043;-60
2021/10/16 04:50:59;;;;;;;19.65;7.30;;;;;;;6.38;100.00;102146.88;10583285;28;20039;-61
2021/10/16 04:56:01;;;;;;;23.08;7.25;;;;;;;6.44;100.00;102145.88;10582773;28;20055;-60
2021/10/16 05:01:03;;;;;;;14.55;6.00;;;;;;;6.39;100.00;102146.00;10581921;28;20051;-60
2021/10/16 05:06:06;;;;;;;14.63;6.25;;;;;;;6.95;100.00;102150.13;10582772;28;20051;-60
2021/10/16 05:11:08;;;;;;;23.60;6.50;;;;;;;6.50;100.00;102136.22;10581981;28;20482;-60
2021/10/16 05:16:14;;;;;;;13.73;4.28;;;;;;;6.55;100.00;102141.34;10582751;28;20047;-60
2021/10/16 05:21:16;;;;;;;12.50;5.40;;;;;;;6.53;100.00;102145.72;10581725;28;20407;-60
2021/10/16 05:26:18;;;;;;;14.15;4.70;;;;;;;6.63;100.00;102139.47;10582005;28;20415;-60
2021/10/16 05:31:21;;;;;;;26.08;5.63;;;;;;;6.70;100.00;102133.25;10581456;28;20502;-61
2021/10/16 05:36:24;;;;;;;23.27;4.35;;;;;;;6.74;100.00;102143.59;10581872;28;20495;-59
2021/10/16 05:41:27;;;;;;;12.38;3.72;;;;;;;6.79;100.00;102142.63;10581376;28;20048;-60
2021/10/16 05:46:33;;;;;;;9.82;3.45;;;;;;;6.90;100.00;102146.75;10581545;28;20051;-60
2021/10/16 05:51:36;;;;;;;17.63;5.03;;;;;;;7.03;100.00;102151.69;10584721;28;20083;-61
2021/10/16 05:56:38;;;;;;;16.70;4.60;;;;;;;7.00;100.00;102151.75;10589760;28;20055;-60
2021/10/16 06:01:40;;;;;;;23.00;4.72;;;;;;;7.11;100.00;102155.88;10589320;28;20043;-60
2021/10/16 06:06:43;;;;;;;15.50;5.25;;;;;;;7.20;100.00;102148.72;10589137;28;20127;-61
2021/10/16 06:11:45;;;;;;;15.05;5.20;;;;;;;7.18;100.00;102142.69;10588996;28;20051;-61
2021/10/16 06:16:48;;;;;;;17.05;5.00;;;;;;;6.73;100.00;102145.34;10589347;28;20051;-61
2021/10/16 06:21:50;;;;;;;17.80;5.60;;;;;;;7.07;100.00;102157.69;10588625;28;20047;-60
2021/10/16 06:26:52;;;;;;;16.30;5.60;;;;;;;7.18;100.00;102152.25;10589131;28;20055;-61
2021/10/16 06:31:54;;;;;;;19.60;4.95;;;;;;;7.05;100.00;102162.06;10587971;28;20390;-60
2021/10/16 06:36:57;;;;;;;13.50;4.32;;;;;;;7.27;100.00;102151.19;10587882;28;20063;-60
2021/10/16 06:41:59;;;;;;;10.95;3.70;;;;;;;7.22;100.00;102157.34;10587562;28;20054;-61
2021/10/16 06:47:01;;;;;;;20.52;5.95;;;;;;;7.29;100.00;102165.03;10587470;28;20491;-61
2021/10/16 06:52:04;;;;;;;18.10;6.13;;;;;;;7.18;100.00;102163.53;10587223;28;20040;-60
2021/10/16 06:57:06;;;;;;;11.18;4.85;;;;;;;7.53;100.00;102163.63;10587351;28;20059;-60
2021/10/16 07:02:09;;;;;;;13.95;4.45;;;;;;;7.40;100.00;102158.69;10568870;28;20048;-60
2021/10/16 07:07:11;;;;;;;10.73;4.18;;;;;;;7.73;100.00;102164.03;10587174;28;20050;-61
2021/10/16 07:12:14;;;;;;;18.15;5.10;;;;;;;7.58;100.00;102166.97;10568382;28;20051;-61
2021/10/16 07:17:16;;;;;;;14.48;4.93;;;;;;;7.53;100.00;102166.22;10586651;28;20055;-60
2021/10/16 07:22:19;;;;;;;18.27;4.20;;;;;;;7.55;100.00;102170.53;10585901;28;20043;-60
2021/10/16 07:27:22;;;;;;;16.65;5.55;;;;;;;7.78;100.00;102169.13;10586242;28;20047;-60
2021/10/16 07:32:24;;;;;;;13.38;3.72;;;;;;;7.88;100.00;102175.84;10585892;28;20040;-60
2021/10/16 07:37:27;;;;;;;13.13;4.43;;;;;;;8.05;100.00;102182.41;10585485;28;20061;-60
2021/10/16 07:42:29;;;;;;;16.50;5.25;;;;;;;8.18;100.00;102189.03;10585390;28;20043;-61
2021/10/16 07:47:31;;;;;;;22.10;4.25;;;;;;;8.38;100.00;102183.31;10585183;28;20050;-60
2021/10/16 07:52:34;;;;;;;17.25;5.10;;;;;;;8.36;100.00;102187.72;10567036;28;20047;-61
2021/10/16 07:57:36;;;;;;;16.08;5.15;;;;;;;8.47;100.00;102187.44;10584866;28;20058;-61
2021/10/16 08:02:39;;;;;;;13.27;4.97;;;;;;;8.52;100.00;102185.56;10584733;28;20043;-60
2021/10/16 08:07:45;;;;;;;10.93;5.00;;;;;;;8.73;100.00;102184.16;10584256;28;20383;-61
2021/10/16 08:12:47;;;;;;;21.20;4.20;;;;;;;8.80;100.00;102184.84;10583751;28;20077;-60
2021/10/16 08:17:49;;;;;;;16.77;4.97;;;;;;;8.82;100.00;102189.09;10584197;28;20058;-61
2021/10/16 08:22:52;;;;;;;9.13;4.22;;;;;;;8.85;100.00;102191.63;10565915;28;20071;-61
2021/10/16 08:27:54;;;;;;;15.20;3.85;;;;;;;9.12;100.00;102191.75;10583227;28;20548;-61
2021/10/16 08:32:56;;;;;;;12.70;4.05;;;;;;;8.84;100.00;102196.91;10583287;28;20641;-60
2021/10/16 08:37:59;;;;;;;10.90;4.43;;;;;;;9.19;100.00;102195.88;10583176;28;20056;-61
2021/10/16 08:43:01;;;;;;;15.93;4.32;;;;;;;9.21;100.00;102196.72;10583047;28;20047;-61
2021/10/16 08:48:05;;;;;;;19.45;6.65;;;;;;;9.58;100.00;102206.06;10582721;28;20044;-61
2021/10/16 08:53:07;;;;;;;22.17;6.72;;;;;;;9.54;100.00;102201.81;10582370;28;20052;-61
2021/10/16 08:58:09;;;;;;;18.80;6.22;;;;;;;9.58;100.00;102211.31;10582452;28;20051;-61
2021/10/16 09:03:16;;;;;;;20.08;5.75;;;;;;;9.82;100.00;102204.44;10582142;28;20050;-61
2021/10/16 09:08:52;;;;;;;14.80;5.63;;;;;;;9.99;100.00;102209.13;10564278;28;20047;-60
2021/10/16 09:13:57;;;;;;;19.83;6.38;;;;;;;10.08;100.00;102210.59;10571018;28;20065;-60
2021/10/16 09:19:02;;;;;;;18.70;5.65;;;;;;;10.26;100.00;102222.22;10581660;28;20403;-61
2021/10/16 09:24:17;;;;;;;30.02;7.13;;;;;;;10.39;97.24;102223.56;10581713;28;20380;-61
2021/10/16 09:29:21;;;;;;;20.20;5.63;;;;;;;10.45;99.28;102219.00;10589804;28;20069;-61
2021/10/16 09:34:32;;;;;;;16.95;4.75;;;;;;;10.76;97.81;102224.06;10591063;28;20052;-61
2021/10/16 09:39:37;;;;;;;22.42;4.65;;;;;;;10.58;99.80;102213.28;10590169;28;20410;-61
2021/10/16 09:44:44;;;;;;;21.73;5.55;;;;;;;11.06;94.84;102221.22;10590583;28;20048;-61
2021/10/16 09:49:49;;;;;;;14.02;4.25;;;;;;;10.82;95.47;102221.19;10572408;28;20053;-61
2021/10/16 09:54:51;;;;;;;25.67;5.82;;;;;;;10.86;89.96;102225.44;10589837;28;20055;-61
2021/10/16 09:59:54;;;;;;;25.20;5.30;;;;;;;10.83;90.04;102225.53;10589226;28;20051;-61
2021/10/16 10:04:57;;;;;;;16.00;5.35;;;;;;;10.94;89.82;102222.53;10571257;28;20066;-61
2021/10/16 10:10:00;;;;;;;14.30;5.82;;;;;;;11.04;90.53;102223.03;10589306;28;20040;-65
2021/10/16 10:15:03;;;;;;;13.10;5.18;;;;;;;10.78;89.23;102222.22;10588824;28;20479;-61
2021/10/16 10:20:12;;;;;;;21.83;5.28;;;;;;;11.07;89.52;102231.66;10588895;28;20056;-61
2021/10/16 10:25:23;;;;;;;18.70;6.35;;;;;;;11.06;90.14;102224.72;10570645;28;20050;-61
2021/10/16 10:30:35;;;;;;;16.73;6.63;;;;;;;11.30;87.95;102217.69;10587996;28;20543;-62
2021/10/16 10:35:37;;;;;;;;;;;;;;;11.24;89.24;102225.78;10589315;28;20372;-63
2021/10/16 10:41:22;;;;;;;19.55;5.32;;;;;;;11.70;88.45;102216.16;10588864;28;19964;-63
2021/10/16 10:46:27;;;;;;;13.90;5.50;;;;;;;11.71;87.12;102204.72;10587537;28;20047;-62
2021/10/16 10:51:38;;;;;;;14.05;5.25;;;;;;;11.20;85.54;102212.88;10587188;28;20372;-61
2021/10/16 10:56:42;;;;;;;16.80;5.33;;;;;;;11.72;83.47;102208.22;10587280;28;20046;-61
2021/10/16 11:01:45;;;;;;;15.57;4.78;;;;;;;12.32;85.85;102200.53;10568857;28;20040;-62
2021/10/16 11:06:59;;;;;;;17.48;4.93;;;;;;;12.12;83.26;102195.28;10587313;28;20051;-62
2021/10/16 11:12:01;;;;;;;18.52;4.95;;;;;;;12.47;84.93;102193.78;10586705;28;20047;-62
2021/10/16 11:17:13;;;;;;;13.68;5.13;;;;;;;12.59;81.17;102189.75;10586482;28;20051;-62
2021/10/16 11:22:15;;;;;;;12.65;3.92;;;;;;;12.33;81.27;102185.66;10586204;28;20487;-62
2021/10/16 11:27:21;;;;;;;11.45;3.63;;;;;;;12.78;79.93;102184.56;10586063;28;20047;-62
2021/10/16 11:32:25;;;;;;;16.38;4.22;;;;;;;12.62;77.15;102185.25;10567753;28;20043;-62
2021/10/16 11:37:48;;;;;;;10.60;2.83;;;;;;;12.50;76.61;102180.50;10585757;28;20062;-62
2021/10/16 11:42:56;;;;;;;15.90;4.07;;;;;;;12.92;73.52;102178.69;10585413;28;20486;-62
2021/10/16 11:48:01;;;;;;;13.50;4.03;;;;;;;14.05;73.29;102167.16;10566445;28;20043;-62
2021/10/16 11:53:15;;;;;;;13.25;3.50;;;;;;;15.13;72.10;102165.97;10567313;28;20040;-62
2021/10/16 11:58:20;;;;;;;16.23;3.75;;;;;;;15.13;65.73;102161.56;10585055;28;20071;-62
2021/10/16 12:03:28;;;;;;;15.30;3.92;;;;;;;15.89;62.77;102138.88;10566716;28;20092;-62
2021/10/16 12:08:32;;;;;;;12.63;4.18;;;;;;;16.05;64.18;102142.28;10584226;28;20367;-62
2021/10/16 12:13:59;;;;;;;16.38;3.88;;;;;;;14.72;63.31;102142.72;10584555;28;20039;-62
2021/10/16 12:19:04;;;;;;;10.73;3.35;;;;;;;15.59;62.56;102126.47;10560969;28;20130;-62
2021/10/16 12:24:18;;;;;;;10.40;2.95;;;;;;;14.90;64.81;102138.25;10583953;28;20044;-61
2021/10/16 12:29:28;;;;;;;12.77;2.88;;;;;;;14.64;64.51;102132.56;10583778;28;20050;-62
2021/10/16 12:34:32;;;;;;;9.75;2.95;;;;;;;15.13;62.49;102119.38;10583144;28;20052;-62
2021/10/16 12:39:43;;;;;;;10.40;3.17;;;;;;;14.98;61.42;102123.69;10565113;28;20051;-62
2021/10/16 12:44:50;;;;;;;12.48;3.40;;;;;;;14.65;63.23;102127.22;10565981;28;20135;-62
2021/10/16 12:49:57;;;;;;;10.57;2.78;;;;;;;15.08;62.34;102117.91;10582716;28;20039;-62
2021/10/16 12:55:25;;;;;;;6.78;2.28;;;;;;;14.97;65.52;102118.50;10582906;28;20055;-62
2021/10/16 13:00:30;;;;;;;8.07;1.90;;;;;;;14.09;57.57;102112.59;10575057;28;20160;-62
2021/10/16 13:05:33;;;;;;;10.23;2.25;;;;;;;14.96;64.42;102101.84;10582739;28;20126;-62
2021/10/16 13:10:35;;;;;;;9.70;2.80;;;;;;;15.28;62.73;102090.41;10564140;28;20039;-62
2021/10/16 13:15:39;;;;;;;5.18;2.60;;;;;;;15.33;60.55;102093.63;10564159;28;20047;-62
2021/10/16 13:20:42;;;;;;;9.82;2.60;;;;;;;14.92;61.35;102096.81;10581883;28;20126;-62
2021/10/16 13:25:45;;;;;;;9.50;2.40;;;;;;;14.86;61.15;102090.94;10581756;28;20487;-62
2021/10/16 13:30:47;;;;;;;11.00;3.22;;;;;;;14.61;64.64;102095.88;10581404;28;20052;-62
2021/10/16 13:35:50;;;;;;;6.80;2.60;;;;;;;14.39;60.32;102091.69;10581727;28;20054;-62
2021/10/16 13:40:53;;;;;;;9.27;3.00;;;;;;;14.35;61.69;102091.94;10581310;28;20079;-62
2021/10/16 13:45:56;;;;;;;14.30;3.90;;;;;;;14.36;63.88;102089.22;10581559;28;20044;-62
2021/10/16 13:50:58;;;;;;;10.65;2.85;;;;;;;13.97;57.29;102074.56;10581175;28;20051;-62
2021/10/16 13:56:01;;;;;;;10.13;2.55;;;;;;;14.96;54.77;102062.28;10581243;28;20475;-62
2021/10/16 14:01:03;;;;;;;12.80;2.45;;;;;;;14.13;60.35;102064.09;10563898;28;20052;-62
2021/10/16 14:06:06;;;;;;;7.53;2.35;;;;;;;13.52;55.44;102066.28;10581269;28;20047;-61
2021/10/16 14:11:08;;;;;;;9.85;2.42;;;;;;;13.57;58.96;102050.28;10581088;28;20058;-62
2021/10/16 14:16:12;;;;;;;7.88;3.20;;;;;;;13.27;60.24;102047.34;10588838;28;20399;-62
2021/10/16 14:21:15;;;;;;;11.13;3.38;;;;;;;13.12;63.67;102041.03;10570652;28;20056;-62
2021/10/16 14:26:18;;;;;;;12.88;3.78;;;;;;;12.43;67.41;102038.09;10588198;28;20047;-62
2021/10/16 14:31:20;;;;;;;11.45;3.20;;;;;;;12.73;65.75;102026.25;10588008;28;20490;-62
2021/10/16 14:36:23;;;;;;;14.45;6.03;;;;;;;13.99;66.32;102035.84;10588381;28;20052;-62
2021/10/16 14:41:25;;;;;;;5.78;2.97;;;;;;;16.82;54.77;102031.00;10587954;28;20050;-62
2021/10/16 14:46:30;;;;;;;9.27;3.33;;;;;;;14.55;60.05;102031.09;10587542;28;20096;-62
2021/10/16 14:51:33;;;;;;;7.35;2.65;;;;;;;12.54;72.72;102032.38;10587362;28;20066;-62
2021/10/16 14:56:35;;;;;;;7.53;1.88;;;;;;;11.65;75.14;102031.84;10552571;28;20044;-62
2021/10/16 15:01:37;;;;;;;5.60;2.10;;;;;;;11.55;81.65;102027.91;10586731;28;20048;-62
2021/10/16 15:06:40;;;;;;;8.43;1.80;;;;;;;11.59;81.69;102036.50;10587022;28;20473;-61
2021/10/16 15:11:43;;;;;;;7.18;2.55;;;;;;;11.18;88.13;102032.03;10586513;28;20043;-62
2021/10/16 15:16:45;;;;;;;7.35;2.00;;;;;;;11.32;87.82;102036.72;10586908;28;20051;-62
2021/10/16 15:21:48;;;;;;;10.43;2.97;;;;;;;10.64;90.00;102007.94;10586318;28;20055;-62
2021/10/16 15:26:50;;;;;;;7.60;2.50;;;;;;;10.72;87.45;102011.09;10585512;28;20048;-62
2021/10/16 15:31:52;;;;;;;7.45;2.28;;;;;;;10.42;96.10;102015.75;10585784;28;20054;-62
2021/10/16 15:36:55;;;;;;;7.53;1.83;;;;;;;10.34;96.15;102015.16;10567690;28;20056;-62
2021/10/16 15:41:58;;;;;;;7.45;2.17;;;;;;;10.30;95.82;102014.41;10585424;28;20059;-62
2021/10/16 15:47:00;;;;;;;5.18;2.20;;;;;;;10.06;94.65;102020.53;10567539;28;20039;-62
2021/10/16 15:52:04;;;;;;;8.57;1.88;;;;;;;10.00;96.32;102019.84;10567105;28;20105;-61
2021/10/16 15:57:06;;;;;;;4.57;2.10;;;;;;;9.65;100.00;102026.31;10585097;28;20043;-62
2021/10/16 16:02:08;;;;;;;7.32;1.90;;;;;;;9.81;98.68;102034.47;10584525;28;20061;-62
2021/10/16 16:07:11;;;;;;;5.05;1.65;;;;;;;9.73;100.00;102028.66;10584956;28;20073;-62
2021/10/16 16:12:13;;;;;;;6.55;1.85;;;;;;;9.47;100.00;102035.63;10584417;28;20043;-62
2021/10/16 16:17:16;;;;;;;9.80;2.60;;;;;;;9.52;100.00;102031.09;10584351;28;20050;-62
2021/10/16 16:22:18;;;;;;;4.47;1.80;;;;;;;9.12;100.00;102029.75;10583774;28;20052;-61
2021/10/16 16:27:20;;;;;;;5.57;1.80;;;;;;;8.95;100.00;102027.69;10583961;28;20044;-61
2021/10/16 16:32:24;;;;;;;8.52;2.28;;;;;;;8.77;100.00;102026.47;10583063;28;20376;-62
2021/10/16 16:37:26;;;;;;;7.10;2.55;;;;;;;8.67;100.00;102025.88;10583756;28;20044;-62
2021/10/16 16:42:31;;;;;;;9.18;2.88;;;;;;;8.63;100.00;102045.16;10583205;28;20075;-62
2021/10/16 16:47:33;;;;;;;6.60;2.55;;;;;;;8.40;100.00;102031.91;10564598;28;20055;-61
2021/10/16 16:52:36;;;;;;;6.10;2.50;;;;;;;8.42;100.00;102023.09;10583110;28;20044;-62
2021/10/16 16:57:38;;;;;;;10.25;2.50;;;;;;;7.97;100.00;102019.13;10582527;28;20479;-62
2021/10/16 17:02:41;;;;;;;12.05;3.35;;;;;;;7.98;100.00;102026.09;10582346;28;20044;-61
2021/10/16 17:07:43;;;;;;;5.57;2.20;;;;;;;7.90;100.00;102022.81;10564336;28;20044;-62
2021/10/16 17:12:46;;;;;;;11.85;3.17;;;;;;;7.63;100.00;102019.16;10582675;28;20047;-61
2021/10/16 17:17:48;;;;;;;10.20;3.47;;;;;;;7.50;100.00;102028.16;10582116;28;20047;-61
2021/10/16 17:22:53;;;;;;;19.08;3.53;;;;;;;7.50;100.00;102033.38;10582089;28;20089;-61
2021/10/16 17:27:56;;;;;;;7.35;3.42;;;;;;;7.61;100.00;102034.81;10581929;28;20048;-61
2021/10/16 17:32:58;;;;;;;16.95;3.35;;;;;;;7.33;100.00;102031.19;10581531;28;20074;-61
2021/10/16 17:38:01;;;;;;;9.73;3.67;;;;;;;7.40;100.00;102041.44;10563543;28;20056;-61
2021/10/16 17:43:03;;;;;;;11.15;3.60;;;;;;;7.21;100.00;102043.63;10582231;28;20124;-61
2021/10/16 17:48:06;;;;;;;12.02;3.60;;;;;;;7.17;100.00;102046.34;10584993;28;20048;-61
2021/10/16 17:53:08;;;;;;;7.10;3.50;;;;;;;7.25;100.00;102047.88;10589836;28;20063;-61
2021/10/16 17:58:10;;;;;;;6.25;3.50;;;;;;;7.14;100.00;102051.63;10589759;28;20052;-61
2021/10/16 18:03:13;;;;;;;5.93;3.40;;;;;;;7.29;100.00;102056.47;10571343;28;20483;-61
2021/10/16 18:08:16;;;;;;;15.88;4.43;;;;;;;7.21;100.00;102054.06;10589263;28;20052;-61
2021/10/16 18:13:18;;;;;;;5.88;3.40;;;;;;;7.37;100.00;102057.16;10588934;28;20051;-61
2021/10/16 18:18:21;;;;;;;7.82;3.80;;;;;;;7.34;100.00;102067.63;10588631;28;20051;-61
2021/10/16 18:23:24;;;;;;;14.25;4.00;;;;;;;7.60;100.00;102066.19;10554119;28;20052;-61
2021/10/16 18:28:27;;;;;;;14.73;4.90;;;;;;;7.59;100.00;102060.09;10588592;28;20061;-61
2021/10/16 18:33:30;;;;;;;8.65;3.10;;;;;;;7.66;100.00;102050.38;10587975;28;20398;-60
2021/10/16 18:38:32;;;;;;;14.10;3.53;;;;;;;7.76;100.00;102046.63;10553134;28;20051;-61
2021/10/16 18:43:35;;;;;;;9.52;3.60;;;;;;;7.62;100.00;102051.34;10588047;28;20123;-61
2021/10/16 18:48:37;;;;;;;9.35;4.50;;;;;;;7.66;100.00;102059.94;10587903;28;20059;-61
2021/10/16 18:53:40;;;;;;;6.22;3.63;;;;;;;7.93;100.00;102055.78;10587709;28;20040;-61
2021/10/16 18:58:42;;;;;;;9.65;4.10;;;;;;;7.72;100.00;102051.97;10568847;28;20388;-61
2021/10/16 19:03:44;;;;;;;11.90;3.72;;;;;;;7.72;100.00;102052.81;10588071;28;20043;-61
2021/10/16 19:08:47;;;;;;;9.95;5.13;;;;;;;7.76;100.00;102054.44;10568695;28;20048;-61
2021/10/16 19:13:49;;;;;;;6.43;4.43;;;;;;;7.72;100.00;102044.16;10587465;28;20047;-61
2021/10/16 19:18:52;;;;;;;9.23;4.55;;;;;;;7.85;100.00;102050.78;10586411;28;20490;-61
2021/10/16 19:23:54;;;;;;;10.77;4.25;;;;;;;8.03;100.00;102051.16;10586917;28;20044;-61
2021/10/16 19:28:57;;;;;;;14.02;4.30;;;;;;;8.02;100.00;102046.84;10586076;28;20044;-61
2021/10/16 19:33:59;;;;;;;10.48;4.45;;;;;;;7.96;100.00;102055.69;10585929;28;20062;-61
2021/10/16 19:39:01;;;;;;;9.38;4.75;;;;;;;7.91;100.00;102049.75;10585838;28;20063;-61
2021/10/16 19:44:04;;;;;;;6.18;3.83;;;;;;;8.05;100.00;102047.59;10585648;28;20058;-61
2021/10/16 19:49:07;;;;;;;12.60;4.78;;;;;;;7.93;100.00;102042.72;10585203;28;20040;-61
2021/10/16 19:54:10;;;;;;;15.90;4.25;;;;;;;8.12;100.00;102046.56;10585272;28;20055;-61
2021/10/16 19:59:12;;;;;;;13.05;3.45;;;;;;;8.13;100.00;102050.88;10584997;28;20047;-60
2021/10/16 20:04:14;;;;;;;9.55;4.32;;;;;;;7.84;100.00;102058.63;10585100;28;20052;-61
2021/10/16 20:09:17;;;;;;;12.02;4.03;;;;;;;8.06;100.00;102066.75;10583606;28;20043;-61
2021/10/16 20:14:20;;;;;;;10.75;4.97;;;;;;;8.26;100.00;102066.22;10584303;28;20047;-61
2021/10/16 20:19:22;;;;;;;13.77;4.55;;;;;;;8.02;100.00;102052.94;10583918;28;20058;-61
2021/10/16 20:24:25;;;;;;;12.57;4.05;;;;;;;8.04;100.00;102058.09;10583709;28;20062;-61
2021/10/16 20:29:28;;;;;;;12.75;3.80;;;;;;;8.49;100.00;102042.09;10583545;28;20046;-61
2021/10/16 20:34:33;;;;;;;19.67;4.78;;;;;;;8.13;100.00;102016.97;10583340;28;20043;-61
2021/10/16 20:39:37;;;;;;;17.40;5.35;;;;;;;8.38;100.00;102000.63;10582974;28;20052;-61
2021/10/16 20:44:40;;;;;;;16.02;5.75;;;;;;;8.57;95.53;101974.84;10583015;28;20047;-61
2021/10/16 20:49:42;;;;;;;7.30;4.28;;;;;;;8.44;95.33;101960.47;10582944;28;20050;-61
2021/10/16 20:54:45;;;;;;;7.95;4.07;;;;;;;8.55;94.43;101974.91;10582928;28;20050;-61
2021/10/16 20:59:47;;;;;;;8.13;4.07;;;;;;;8.84;87.77;101987.97;10564652;28;20043;-61
2021/10/16 21:04:49;;;;;;;12.57;4.55;;;;;;;8.81;87.04;102002.00;10564769;28;20074;-61
2021/10/16 21:09:52;;;;;;;14.30;4.00;;;;;;;8.97;87.50;102009.34;10582106;28;20406;-61
2021/10/16 21:14:54;;;;;;;11.32;4.47;;;;;;;9.00;87.19;102022.31;10582164;28;20390;-61
2021/10/16 21:19:56;;;;;;;11.93;4.75;;;;;;;8.69;92.61;102023.22;10581833;28;20080;-61
2021/10/16 21:24:58;;;;;;;11.75;4.00;;;;;;;8.63;95.31;102023.44;10582080;28;20044;-61
2021/10/16 21:30:02;;;;;;;7.63;3.65;;;;;;;8.53;98.31;102021.06;10581744;28;20039;-61
2021/10/16 21:35:04;;;;;;;11.75;4.97;;;;;;;8.50;95.57;102013.34;10581557;28;20509;-61
2021/10/16 21:40:07;;;;;;;11.95;4.15;;;;;;;8.50;98.93;102023.78;10581558;28;20502;-61
2021/10/16 21:45:10;;;;;;;9.35;4.00;;;;;;;8.48;99.57;102028.19;10581700;28;20044;-61
2021/10/16 21:50:12;;;;;;;11.88;5.05;;;;;;;8.37;100.00;102020.66;10563175;28;20525;-61
2021/10/16 21:55:15;;;;;;;13.02;5.70;;;;;;;8.25;100.00;102020.13;10563488;28;20055;-61
2021/10/16 22:00:26;;;;;;;19.13;5.78;;;;;;;8.42;100.00;102024.88;10563545;28;20055;-61
2021/10/16 22:05:29;;;;;;;19.02;6.80;;;;;;;8.47;100.00;102025.63;10581231;28;20105;-61
2021/10/16 22:10:31;;;;;;;14.13;6.03;;;;;;;8.52;100.00;102016.78;10580446;28;20379;-61
2021/10/16 22:15:34;;;;;;;22.25;7.03;;;;;;;8.32;100.00;102016.44;10581245;28;20040;-61
2021/10/16 22:20:38;;;;;;;12.95;5.50;;;;;;;8.26;100.00;102004.44;10580673;28;20043;-61
2021/10/16 22:25:41;;;;;;;9.45;7.03;;;;;;;8.36;100.00;102007.66;10581444;28;20122;-61
2021/10/16 22:30:45;;;;;;;12.65;6.43;;;;;;;8.47;100.00;102007.34;10580601;28;20039;-61
2021/10/16 22:35:47;;;;;;;18.20;7.15;;;;;;;8.40;100.00;102006.63;10569189;28;20097;-61
2021/10/16 22:40:50;;;;;;;13.85;6.65;;;;;;;8.38;100.00;102009.28;10587936;28;20437;-61
2021/10/16 22:45:52;;;;;;;11.07;6.45;;;;;;;8.37;100.00;102009.34;10569929;28;20048;-61
2021/10/16 22:50:55;;;;;;;17.45;6.60;;;;;;;8.19;100.00;102008.97;10587516;28;20055;-61
2021/10/16 22:55:59;;;;;;;21.88;8.05;;;;;;;8.16;100.00;101998.63;10587481;28;20411;-61
2021/10/16 23:01:01;;;;;;;22.92;7.82;;;;;;;8.29;100.00;101990.47;10588200;28;20057;-61
2021/10/16 23:06:04;;;;;;;19.63;7.50;;;;;;;8.34;100.00;101989.41;10587221;28;20101;-61